Time;durP1;ratioP1;P1;durP2;ratioP2;P2;SDS_P1;SDS_P2;PMS_P1;PMS_P2;Temp;Humidity;BMP_temperature;BMP_pressure;BME280_temperature;BME280_humidity;BME280_pressure;Samples;Min_cycle;Max_cycle;Signal;HPM_P1;HPM_P2
2022/01/13 00:01:42;;;;;;;34.75;25.83;;;0.90;99.90;;;;;;4997676;28;20195;-91
2022/01/13 00:04:10;;;;;;;31.70;26.00;;;0.90;99.90;;;;;;4998656;28;20283;-91
2022/01/13 00:06:37;;;;;;;35.83;27.20;;;0.90;99.90;;;;;;4995097;28;20311;-91
2022/01/13 00:09:04;;;;;;;41.72;27.85;;;0.90;99.90;;;;;;5005104;28;20180;-92
2022/01/13 00:11:31;;;;;;;29.10;24.48;;;0.90;99.90;;;;;;4999462;28;20203;-91
2022/01/13 00:17:06;;;;;;;31.30;24.35;;;0.90;99.90;;;;;;4994937;28;20240;-92
2022/01/13 00:19:45;;;;;;;30.65;24.65;;;0.80;99.90;;;;;;4995902;28;20284;-92
2022/01/13 00:22:18;;;;;;;35.25;24.98;;;0.80;99.90;;;;;;4994781;28;20205;-91
2022/01/13 00:24:50;;;;;;;32.47;24.30;;;0.70;99.90;;;;;;4995694;28;20205;-91
2022/01/13 00:27:17;;;;;;;34.75;27.17;;;0.70;99.90;;;;;;4996128;28;20235;-92
2022/01/13 00:29:46;;;;;;;35.45;25.75;;;0.70;99.90;;;;;;4995305;28;20230;-92
2022/01/13 00:32:15;;;;;;;32.88;24.65;;;0.70;99.90;;;;;;4995211;28;20248;-92
2022/01/13 00:34:42;;;;;;;36.80;26.77;;;0.80;99.90;;;;;;4995522;28;20722;-92
2022/01/13 00:37:09;;;;;;;39.47;28.70;;;0.80;99.90;;;;;;4994512;28;20220;-92
2022/01/13 00:39:36;;;;;;;35.38;26.58;;;0.80;99.90;;;;;;4994963;28;20207;-92
2022/01/13 00:42:04;;;;;;;44.88;29.13;;;0.80;99.90;;;;;;4994822;28;20656;-91
2022/01/13 00:44:36;;;;;;;38.30;27.85;;;0.90;99.90;;;;;;4994728;28;20200;-91
2022/01/13 00:47:08;;;;;;;40.42;29.17;;;0.90;99.90;;;;;;4994443;28;20219;-91
2022/01/13 00:49:35;;;;;;;41.30;29.58;;;1.00;99.90;;;;;;4995106;28;20554;-92
2022/01/13 00:52:02;;;;;;;32.95;26.98;;;0.90;99.90;;;;;;4994886;28;20209;-91
2022/01/13 00:54:29;;;;;;;34.88;26.60;;;0.90;99.90;;;;;;4995071;28;20204;-91
2022/01/13 00:56:56;;;;;;;35.22;26.33;;;0.90;99.90;;;;;;4995161;28;20220;-91
2022/01/13 00:59:22;;;;;;;39.63;27.60;;;1.00;99.90;;;;;;4994927;28;20213;-91
2022/01/13 01:01:51;;;;;;;40.35;26.88;;;1.00;99.90;;;;;;4999489;28;20207;-91
2022/01/13 01:04:31;;;;;;;35.10;26.83;;;1.00;99.90;;;;;;5010512;28;20185;-92
2022/01/13 01:06:58;;;;;;;39.25;28.98;;;1.00;99.90;;;;;;5018454;28;20208;-92
2022/01/13 01:09:37;;;;;;;37.22;27.33;;;1.10;99.90;;;;;;5018401;28;20248;-91
2022/01/13 01:12:05;;;;;;;39.13;28.25;;;1.10;99.90;;;;;;5008256;28;20199;-91
2022/01/13 01:14:35;;;;;;;36.45;26.45;;;1.00;99.90;;;;;;5014571;28;20208;-91
2022/01/13 01:17:05;;;;;;;37.55;25.95;;;0.90;99.90;;;;;;5012720;28;20647;-92
2022/01/13 01:19:33;;;;;;;41.53;28.48;;;1.00;99.90;;;;;;5017181;28;20204;-91
2022/01/13 01:22:18;;;;;;;41.83;30.65;;;0.90;99.90;;;;;;5014871;28;20186;-90
2022/01/13 01:25:02;;;;;;;42.20;29.63;;;1.00;99.90;;;;;;5017192;28;20188;-91
2022/01/13 01:27:33;;;;;;;39.40;29.33;;;1.00;99.90;;;;;;5001192;28;20236;-91
2022/01/13 01:30:04;;;;;;;46.95;31.02;;;1.00;99.90;;;;;;5016968;28;20244;-90
2022/01/13 01:32:34;;;;;;;47.95;33.63;;;1.00;99.90;;;;;;5018008;28;20208;-92
2022/01/13 01:35:04;;;;;;;42.95;30.05;;;1.00;99.90;;;;;;5016522;28;20200;-91
2022/01/13 01:37:32;;;;;;;38.45;28.10;;;1.00;99.90;;;;;;5005924;28;20219;-90
2022/01/13 01:40:00;;;;;;;45.72;31.30;;;1.00;99.90;;;;;;5000348;28;20249;-92
2022/01/13 01:42:29;;;;;;;43.15;30.67;;;1.00;99.90;;;;;;4996683;28;20211;-91
2022/01/13 01:45:00;;;;;;;45.20;31.02;;;1.00;99.90;;;;;;4995357;28;20204;-92
2022/01/13 01:47:29;;;;;;;39.13;29.92;;;0.90;99.90;;;;;;4993864;28;20311;-91
2022/01/13 01:49:59;;;;;;;42.00;29.27;;;0.90;99.90;;;;;;4994193;28;20200;-92
2022/01/13 01:52:34;;;;;;;42.08;31.15;;;1.00;99.90;;;;;;4994102;28;20205;-92
2022/01/13 01:55:01;;;;;;;51.75;29.98;;;1.00;99.90;;;;;;4994615;28;20208;-92
2022/01/13 01:57:32;;;;;;;46.15;31.60;;;1.00;99.90;;;;;;4996969;28;20236;-93
2022/01/13 02:00:02;;;;;;;39.67;28.85;;;1.00;99.90;;;;;;5002438;28;20203;-93
2022/01/13 02:02:32;;;;;;;39.67;29.33;;;1.00;99.90;;;;;;4999936;28;20204;-91
2022/01/13 02:04:59;;;;;;;45.97;30.05;;;1.00;99.90;;;;;;5000781;28;20249;-92
2022/01/13 02:07:28;;;;;;;42.33;28.50;;;1.00;99.90;;;;;;5000582;28;20271;-91
2022/01/13 02:10:31;;;;;;;42.08;31.40;;;1.00;99.90;;;;;;5003972;28;20265;-92
2022/01/13 02:13:05;;;;;;;38.60;28.45;;;1.00;99.90;;;;;;4999895;28;20232;-91
2022/01/13 02:15:35;;;;;;;43.83;29.52;;;1.00;99.90;;;;;;5000693;28;20653;-91
2022/01/13 02:18:07;;;;;;;40.72;28.45;;;1.00;99.90;;;;;;5012180;28;20235;-92
2022/01/13 02:20:50;;;;;;;43.45;31.80;;;0.90;99.90;;;;;;5015603;28;20172;-91
2022/01/13 02:23:30;;;;;;;46.28;30.27;;;0.90;99.90;;;;;;5021870;28;20256;-92
2022/01/13 02:25:57;;;;;;;42.17;29.85;;;0.90;99.90;;;;;;5020888;28;20284;-92
2022/01/13 02:28:24;;;;;;;40.33;28.88;;;0.90;99.90;;;;;;5021612;28;20185;-91
2022/01/13 02:30:52;;;;;;;40.58;29.58;;;0.80;99.90;;;;;;5017997;28;20211;-92
2022/01/13 02:33:21;;;;;;;44.55;30.48;;;0.80;99.90;;;;;;5006714;28;20754;-91
2022/01/13 02:35:50;;;;;;;35.03;28.02;;;0.90;99.90;;;;;;5021449;28;20228;-92
2022/01/13 02:38:17;;;;;;;41.58;29.02;;;0.80;99.90;;;;;;5020488;28;20733;-90
2022/01/13 02:40:44;;;;;;;38.50;28.83;;;0.80;99.90;;;;;;5020272;28;20189;-93
2022/01/13 02:43:11;;;;;;;43.05;29.92;;;0.80;99.90;;;;;;5009752;28;20248;-91
2022/01/13 02:45:51;;;;;;;46.08;31.40;;;0.80;99.90;;;;;;5001708;28;20223;-94
2022/01/13 02:48:31;;;;;;;46.22;31.27;;;0.80;99.90;;;;;;5002008;28;20228;-91
2022/01/13 02:51:00;;;;;;;45.20;31.50;;;0.80;99.90;;;;;;5002944;28;20269;-92
2022/01/13 02:53:28;;;;;;;39.42;28.00;;;0.80;99.90;;;;;;5000655;28;20702;-91
2022/01/13 02:56:03;;;;;;;40.45;29.55;;;0.90;99.90;;;;;;5001474;28;20220;-92
2022/01/13 02:58:30;;;;;;;40.80;28.95;;;0.80;99.90;;;;;;4999282;28;20220;-92
2022/01/13 03:00:57;;;;;;;38.90;27.10;;;0.80;99.90;;;;;;5000693;28;20205;-92
2022/01/13 03:03:24;;;;;;;35.35;25.42;;;0.80;99.90;;;;;;5001196;28;20193;-90
2022/01/13 03:05:51;;;;;;;37.78;26.63;;;0.80;99.90;;;;;;5000442;28;20294;-91
2022/01/13 03:08:21;;;;;;;35.90;29.10;;;0.70;99.90;;;;;;5013300;28;20192;-92
2022/01/13 03:10:48;;;;;;;39.05;27.27;;;0.70;99.90;;;;;;5014876;28;20211;-92
2022/01/13 03:13:17;;;;;;;37.80;27.27;;;0.60;99.90;;;;;;5000278;28;20196;-90
2022/01/13 03:15:44;;;;;;;38.67;28.02;;;0.60;99.90;;;;;;4997520;28;20221;-90
2022/01/13 03:18:11;;;;;;;46.35;27.70;;;0.60;99.90;;;;;;4999352;28;20223;-90
2022/01/13 03:20:38;;;;;;;35.45;26.27;;;0.60;99.90;;;;;;5014004;28;20180;-90
2022/01/13 03:23:06;;;;;;;40.17;28.58;;;0.60;99.90;;;;;;5020131;28;20259;-89
2022/01/13 03:25:34;;;;;;;39.08;27.80;;;0.60;99.90;;;;;;5003796;28;20200;-90
2022/01/13 03:28:07;;;;;;;38.67;26.38;;;0.50;99.90;;;;;;5006422;28;20203;-90
2022/01/13 03:30:34;;;;;;;38.60;27.15;;;0.50;99.90;;;;;;5003623;28;20211;-90
2022/01/13 03:33:02;;;;;;;33.55;26.10;;;0.50;99.90;;;;;;4998215;28;20196;-90
2022/01/13 03:35:29;;;;;;;43.15;28.08;;;0.50;99.90;;;;;;5000870;28;21852;-91
2022/01/13 03:37:57;;;;;;;38.97;26.85;;;0.50;99.90;;;;;;4996339;28;20228;-90
2022/01/13 03:40:24;;;;;;;39.45;26.60;;;0.50;99.90;;;;;;4996077;28;20223;-91
2022/01/13 03:42:53;;;;;;;32.58;25.25;;;0.50;99.90;;;;;;4996521;28;20651;-91
2022/01/13 03:45:20;;;;;;;35.92;26.40;;;0.40;99.90;;;;;;4995622;28;20283;-91
2022/01/13 03:47:47;;;;;;;34.45;26.38;;;0.40;99.90;;;;;;4994921;28;20208;-90
2022/01/13 03:50:13;;;;;;;31.92;24.45;;;0.40;99.90;;;;;;4995015;28;20196;-90
2022/01/13 03:53:27;;;;;;;37.75;26.52;;;0.40;99.90;;;;;;4995076;28;20200;-85
2022/01/13 03:56:40;;;;;;;40.72;27.60;;;0.40;99.90;;;;;;4994396;28;20227;-85
2022/01/13 03:59:40;;;;;;;33.10;26.05;;;0.40;99.90;;;;;;4988854;28;20220;-84
2022/01/13 04:02:09;;;;;;;31.67;24.60;;;0.50;99.90;;;;;;4988957;28;20204;-88
2022/01/13 04:04:38;;;;;;;33.78;27.05;;;0.50;99.90;;;;;;4994963;28;20581;-91
2022/01/13 04:07:09;;;;;;;37.28;25.92;;;0.50;99.90;;;;;;4995504;28;20219;-90
2022/01/13 04:10:23;;;;;;;35.90;26.23;;;0.50;99.90;;;;;;4995377;28;20211;-90
2022/01/13 04:12:50;;;;;;;33.60;26.33;;;0.50;99.90;;;;;;4987053;28;20200;-91
2022/01/13 04:15:20;;;;;;;38.00;26.80;;;0.50;99.90;;;;;;4987797;28;20200;-91
2022/01/13 04:17:47;;;;;;;31.63;24.63;;;0.50;99.90;;;;;;4981412;28;20235;-89
2022/01/13 04:20:14;;;;;;;34.05;26.58;;;0.50;99.90;;;;;;4996130;28;20211;-90
2022/01/13 04:22:41;;;;;;;41.45;29.58;;;0.60;99.90;;;;;;5007353;28;20210;-90
2022/01/13 04:25:09;;;;;;;36.80;26.25;;;0.60;99.90;;;;;;4997861;28;20688;-90
2022/01/13 04:27:41;;;;;;;38.17;28.38;;;0.60;99.90;;;;;;4995002;28;20216;-91
2022/01/13 04:33:07;;;;;;;29.65;24.77;;;0.60;99.90;;;;;;4957264;29;20196;-91
2022/01/13 04:35:36;;;;;;;37.33;25.63;;;0.60;99.90;;;;;;4991341;28;20186;-90
2022/01/13 04:38:03;;;;;;;36.03;27.65;;;0.70;99.90;;;;;;4979397;28;20228;-91
2022/01/13 04:40:30;;;;;;;41.38;27.08;;;0.70;99.90;;;;;;4995606;28;20196;-90
2022/01/13 04:42:57;;;;;;;33.70;25.10;;;0.70;99.90;;;;;;4995619;28;20211;-91
2022/01/13 04:45:25;;;;;;;34.78;25.05;;;0.70;99.90;;;;;;4996279;28;20200;-91
2022/01/13 04:47:56;;;;;;;34.92;24.60;;;0.70;99.90;;;;;;4995404;28;20192;-91
2022/01/13 04:50:25;;;;;;;35.92;25.60;;;0.70;99.90;;;;;;4995264;28;20192;-91
2022/01/13 04:52:52;;;;;;;35.22;24.45;;;0.70;99.90;;;;;;4995217;28;20269;-91
2022/01/13 04:55:24;;;;;;;32.72;24.67;;;0.70;99.90;;;;;;5002507;28;20207;-91
2022/01/13 04:57:52;;;;;;;37.97;26.00;;;0.70;99.90;;;;;;5017705;28;20219;-90
2022/01/13 05:00:20;;;;;;;35.45;24.70;;;0.70;99.90;;;;;;5018379;28;20196;-91
2022/01/13 05:02:46;;;;;;;35.20;25.27;;;0.70;99.90;;;;;;5018124;28;20196;-90
2022/01/13 05:05:13;;;;;;;34.40;24.55;;;0.80;99.90;;;;;;5017313;28;20199;-90
2022/01/13 05:07:41;;;;;;;33.67;24.80;;;0.70;99.90;;;;;;5019046;28;20275;-90
2022/01/13 05:10:10;;;;;;;30.02;24.23;;;0.70;99.90;;;;;;5019498;28;20196;-90
2022/01/13 05:12:41;;;;;;;32.63;24.20;;;0.70;99.90;;;;;;5018736;28;20253;-90
2022/01/13 05:15:11;;;;;;;33.00;24.77;;;0.80;99.90;;;;;;5016351;28;20204;-91
2022/01/13 05:18:04;;;;;;;31.65;24.63;;;0.80;99.90;;;;;;5006909;28;20320;-90
2022/01/13 05:20:39;;;;;;;35.22;24.52;;;0.80;99.90;;;;;;5012673;28;20185;-88
2022/01/13 05:23:11;;;;;;;31.15;23.92;;;0.80;99.90;;;;;;5013398;28;20208;-90
2022/01/13 05:25:39;;;;;;;31.98;26.25;;;0.70;99.90;;;;;;4993952;28;20203;-90
2022/01/13 05:28:07;;;;;;;32.63;25.45;;;0.70;99.90;;;;;;4994675;28;20201;-90
2022/01/13 05:30:33;;;;;;;36.03;26.27;;;0.70;99.90;;;;;;4998559;28;20211;-90
2022/01/13 05:33:00;;;;;;;30.52;23.70;;;0.80;99.90;;;;;;5013811;28;20255;-89
2022/01/13 05:35:27;;;;;;;36.00;27.05;;;0.80;99.90;;;;;;5018163;28;20176;-90
2022/01/13 05:37:55;;;;;;;36.63;24.45;;;0.80;99.90;;;;;;5032486;23;20242;-84
2022/01/13 05:40:23;;;;;;;31.15;24.55;;;0.80;99.90;;;;;;4995020;28;20200;-85
2022/01/13 05:42:50;;;;;;;35.47;27.95;;;0.80;99.90;;;;;;4996404;28;20651;-84
2022/01/13 05:45:19;;;;;;;36.53;25.52;;;0.80;99.90;;;;;;5008038;28;20204;-85
2022/01/13 05:47:48;;;;;;;36.58;25.65;;;0.80;99.90;;;;;;5002873;28;20204;-85
2022/01/13 05:50:18;;;;;;;37.30;25.92;;;0.80;99.90;;;;;;4995507;28;20206;-85
2022/01/13 05:52:44;;;;;;;35.50;25.15;;;0.70;99.90;;;;;;4977009;28;20205;-84
2022/01/13 05:55:12;;;;;;;37.05;26.75;;;0.70;99.90;;;;;;4983702;28;20203;-85
2022/01/13 05:57:40;;;;;;;38.47;27.38;;;0.70;99.90;;;;;;4995813;28;20236;-84
2022/01/13 06:00:10;;;;;;;35.00;25.70;;;0.70;99.90;;;;;;4995165;28;20200;-84
2022/01/13 06:02:36;;;;;;;33.88;25.33;;;0.70;99.90;;;;;;4994427;28;20209;-85
2022/01/13 06:05:04;;;;;;;36.33;26.73;;;0.70;99.90;;;;;;4994679;28;20679;-85
2022/01/13 06:07:31;;;;;;;36.05;25.83;;;0.70;99.90;;;;;;4994263;28;20259;-83
2022/01/13 06:09:57;;;;;;;41.00;27.80;;;0.70;99.90;;;;;;4984207;28;20192;-85
2022/01/13 06:12:32;;;;;;;32.95;25.63;;;0.70;99.90;;;;;;5005050;28;20687;-86
2022/01/13 06:15:01;;;;;;;34.72;24.55;;;0.70;99.90;;;;;;4996399;28;20210;-84
2022/01/13 06:17:28;;;;;;;37.70;26.48;;;0.80;99.90;;;;;;4994991;28;20216;-85
2022/01/13 06:19:55;;;;;;;31.67;24.70;;;0.80;99.90;;;;;;4997036;28;20216;-86
2022/01/13 06:22:22;;;;;;;36.65;26.05;;;0.80;99.90;;;;;;4997921;28;20243;-84
2022/01/13 06:24:49;;;;;;;35.95;26.88;;;0.80;99.90;;;;;;4996732;28;20667;-84
2022/01/13 06:27:16;;;;;;;35.88;26.05;;;0.90;99.90;;;;;;4997995;28;20208;-84
2022/01/13 06:29:43;;;;;;;35.67;26.35;;;0.90;99.90;;;;;;4998922;28;20224;-84
2022/01/13 06:32:11;;;;;;;34.72;25.90;;;0.90;99.90;;;;;;4999335;28;20208;-84
2022/01/13 06:34:38;;;;;;;34.60;26.38;;;0.80;99.90;;;;;;4996869;28;20643;-85
2022/01/13 06:37:04;;;;;;;33.38;26.10;;;0.80;99.90;;;;;;4996906;28;20659;-84
2022/01/13 06:39:31;;;;;;;30.00;23.63;;;0.70;99.90;;;;;;4996898;28;20686;-85
2022/01/13 06:41:58;;;;;;;35.10;26.70;;;0.60;99.90;;;;;;4995937;28;20204;-83
2022/01/13 06:44:24;;;;;;;37.70;26.08;;;0.60;99.90;;;;;;4997331;28;20208;-83
2022/01/13 06:46:51;;;;;;;39.45;28.60;;;0.70;99.90;;;;;;5000294;28;20208;-85
2022/01/13 06:49:19;;;;;;;32.92;24.52;;;0.70;99.90;;;;;;5014306;28;20235;-83
2022/01/13 06:51:46;;;;;;;38.67;26.33;;;0.70;99.90;;;;;;5008894;28;20200;-84
2022/01/13 06:54:13;;;;;;;36.13;25.92;;;0.70;99.90;;;;;;5002252;28;20223;-83
2022/01/13 06:56:39;;;;;;;37.95;24.05;;;0.70;99.90;;;;;;5006233;28;20200;-85
2022/01/13 06:59:10;;;;;;;37.00;27.13;;;0.70;99.90;;;;;;4995887;28;20572;-84
2022/01/13 07:01:37;;;;;;;37.42;27.30;;;0.80;99.90;;;;;;4996498;28;20203;-86
2022/01/13 07:04:05;;;;;;;40.88;28.30;;;0.70;99.90;;;;;;5010609;28;20204;-83
2022/01/13 07:06:33;;;;;;;37.20;26.85;;;0.70;99.90;;;;;;5004747;28;20200;-86
2022/01/13 07:09:00;;;;;;;38.35;26.77;;;0.70;99.90;;;;;;5000958;28;20218;-86
2022/01/13 07:11:26;;;;;;;37.20;27.70;;;0.80;99.90;;;;;;4998578;28;20240;-87
2022/01/13 07:13:53;;;;;;;38.47;26.88;;;0.80;99.90;;;;;;4998061;28;20616;-87
2022/01/13 07:16:21;;;;;;;41.78;26.77;;;0.80;99.90;;;;;;5001863;28;20204;-87
2022/01/13 07:18:48;;;;;;;35.70;26.08;;;0.80;99.90;;;;;;5003626;28;20282;-86
2022/01/13 07:21:16;;;;;;;35.13;26.00;;;0.80;99.90;;;;;;5014738;28;20229;-86
2022/01/13 07:23:44;;;;;;;39.60;27.10;;;0.70;99.90;;;;;;5016764;28;20205;-86
2022/01/13 07:26:11;;;;;;;39.13;27.70;;;0.70;99.90;;;;;;5004015;28;20448;-87
2022/01/13 07:28:38;;;;;;;37.95;27.70;;;0.70;99.90;;;;;;4996346;28;20230;-87
2022/01/13 07:31:05;;;;;;;42.13;26.25;;;0.70;99.90;;;;;;4999344;28;20204;-87
2022/01/13 07:33:32;;;;;;;36.60;25.98;;;0.70;99.90;;;;;;4997472;28;20254;-87
2022/01/13 07:35:59;;;;;;;40.10;29.27;;;0.70;99.90;;;;;;4997539;28;20679;-88
2022/01/13 07:38:26;;;;;;;45.35;26.98;;;0.70;99.90;;;;;;4998900;28;20224;-86
2022/01/13 07:40:54;;;;;;;29.85;25.00;;;0.70;99.90;;;;;;4997800;28;20671;-87
2022/01/13 07:43:24;;;;;;;42.47;29.40;;;0.70;99.90;;;;;;4997316;28;20228;-87
2022/01/13 07:45:52;;;;;;;33.97;26.75;;;0.80;99.90;;;;;;4997474;28;20247;-88
2022/01/13 07:48:19;;;;;;;42.67;24.83;;;0.80;99.90;;;;;;4996776;28;20671;-86
2022/01/13 07:50:45;;;;;;;35.88;25.63;;;0.80;99.90;;;;;;4997681;28;20647;-87
2022/01/13 07:53:12;;;;;;;37.60;26.33;;;0.80;99.90;;;;;;4997112;28;20215;-87
2022/01/13 07:55:39;;;;;;;33.13;26.20;;;0.90;99.90;;;;;;4996767;28;20640;-86
2022/01/13 07:58:07;;;;;;;35.58;27.13;;;0.90;99.90;;;;;;4998901;28;20222;-87
2022/01/13 08:00:34;;;;;;;37.35;29.23;;;0.90;99.90;;;;;;4999747;28;20227;-87
2022/01/13 08:03:00;;;;;;;49.90;28.95;;;1.00;99.90;;;;;;5001529;28;20200;-86
2022/01/13 08:05:27;;;;;;;35.78;27.15;;;1.00;99.90;;;;;;4999885;28;20208;-86
2022/01/13 08:07:54;;;;;;;38.25;27.23;;;1.00;99.90;;;;;;4997785;28;20227;-87
2022/01/13 08:10:20;;;;;;;38.42;26.52;;;1.00;99.90;;;;;;4998436;28;20208;-87
2022/01/13 08:12:47;;;;;;;37.55;27.10;;;1.00;99.90;;;;;;4997564;28;20201;-86
2022/01/13 08:15:15;;;;;;;34.10;25.95;;;0.80;99.90;;;;;;5011928;28;20647;-87
2022/01/13 08:20:27;;;;;;;42.83;29.13;;;0.90;99.90;;;;;;4980017;28;20285;-87
2022/01/13 08:22:54;;;;;;;37.80;27.48;;;1.00;99.90;;;;;;4986358;28;20200;-87
2022/01/13 08:25:21;;;;;;;37.80;28.60;;;1.00;99.90;;;;;;4996076;28;20208;-87
2022/01/13 08:27:48;;;;;;;41.65;27.60;;;1.10;99.90;;;;;;4997212;28;20232;-87
2022/01/13 08:30:16;;;;;;;40.13;26.98;;;1.10;99.90;;;;;;4998282;28;20188;-85
2022/01/13 08:32:43;;;;;;;43.13;27.90;;;1.10;99.90;;;;;;4997574;28;20201;-87
2022/01/13 08:35:11;;;;;;;42.38;27.90;;;1.10;99.90;;;;;;5004843;28;20596;-85
2022/01/13 08:37:38;;;;;;;38.55;26.27;;;1.00;99.90;;;;;;5016034;28;20220;-87
2022/01/13 08:40:07;;;;;;;37.45;26.80;;;1.00;99.90;;;;;;5005568;28;20228;-87
2022/01/13 08:42:35;;;;;;;46.50;30.23;;;1.00;99.90;;;;;;4999292;28;20232;-87
2022/01/13 08:45:02;;;;;;;36.33;27.40;;;1.10;99.90;;;;;;5004423;28;20209;-88
2022/01/13 08:47:30;;;;;;;38.17;28.20;;;1.20;99.90;;;;;;4996878;28;20205;-87
2022/01/13 08:49:56;;;;;;;38.88;27.05;;;1.20;99.90;;;;;;4997557;28;20575;-86
2022/01/13 08:52:24;;;;;;;37.10;27.60;;;1.20;99.90;;;;;;4998126;28;20236;-85
2022/01/13 08:54:51;;;;;;;38.53;28.75;;;1.30;99.90;;;;;;4998776;28;20196;-86
2022/01/13 08:57:18;;;;;;;39.38;27.48;;;1.40;99.90;;;;;;4998175;28;20215;-86
2022/01/13 08:59:45;;;;;;;40.58;27.75;;;1.50;99.90;;;;;;4996964;28;20233;-86
2022/01/13 09:02:12;;;;;;;43.15;29.02;;;1.60;99.90;;;;;;4996077;28;20226;-86
2022/01/13 09:04:40;;;;;;;33.08;29.00;;;1.80;99.90;;;;;;4996204;28;20210;-87
2022/01/13 09:07:08;;;;;;;40.65;28.20;;;2.20;99.90;;;;;;4994538;28;20211;-86
2022/01/13 09:09:35;;;;;;;35.47;27.92;;;2.60;99.90;;;;;;4994879;28;20292;-87
2022/01/13 09:12:03;;;;;;;35.00;29.20;;;2.90;99.90;;;;;;4994783;28;20233;-86
2022/01/13 09:14:32;;;;;;;37.30;28.67;;;3.00;99.90;;;;;;4994556;28;20456;-86
2022/01/13 09:17:00;;;;;;;38.08;27.67;;;2.70;99.90;;;;;;4994195;28;20754;-87
2022/01/13 09:19:26;;;;;;;36.87;26.07;;;2.60;99.90;;;;;;4993936;28;20229;-87
2022/01/13 09:21:55;;;;;;;38.92;27.67;;;2.70;99.90;;;;;;4999257;28;20445;-86
2022/01/13 09:24:22;;;;;;;37.08;28.20;;;2.80;99.90;;;;;;5002587;28;20213;-85
2022/01/13 09:26:49;;;;;;;39.67;27.17;;;2.80;99.90;;;;;;5002879;28;20244;-85
2022/01/13 09:29:16;;;;;;;33.28;25.58;;;2.80;99.90;;;;;;5003225;28;20282;-85
2022/01/13 09:31:44;;;;;;;33.97;26.10;;;2.80;99.90;;;;;;5014082;28;20205;-85
2022/01/13 09:34:11;;;;;;;35.63;25.40;;;2.90;99.90;;;;;;5013591;28;20193;-87
2022/01/13 09:36:39;;;;;;;34.95;26.60;;;3.30;99.90;;;;;;5000808;28;20215;-86
2022/01/13 09:39:09;;;;;;;32.95;25.23;;;3.30;99.90;;;;;;5000065;28;20229;-87
2022/01/13 09:41:37;;;;;;;38.00;26.10;;;3.10;99.90;;;;;;5009460;28;20216;-87
2022/01/13 09:44:05;;;;;;;35.80;26.02;;;2.80;99.90;;;;;;4999230;28;20807;-87
2022/01/13 09:46:32;;;;;;;30.15;22.55;;;2.80;99.90;;;;;;4999614;28;20200;-86
2022/01/13 09:49:04;;;;;;;25.98;19.50;;;2.70;99.90;;;;;;5000943;28;20277;-86
2022/01/13 09:51:31;;;;;;;29.53;20.77;;;2.70;99.90;;;;;;5000964;28;20233;-86
2022/01/13 09:53:58;;;;;;;29.60;23.43;;;2.70;99.90;;;;;;4998966;28;20453;-86
2022/01/13 09:56:27;;;;;;;35.45;24.60;;;2.70;99.90;;;;;;4999368;28;20482;-87
2022/01/13 09:58:54;;;;;;;28.83;23.00;;;2.70;99.90;;;;;;5001624;28;20220;-87
2022/01/13 10:01:21;;;;;;;28.93;25.30;;;2.80;99.90;;;;;;5001328;28;20280;-86
2022/01/13 10:03:48;;;;;;;32.13;24.63;;;3.00;99.90;;;;;;5002253;28;20484;-87
2022/01/13 10:06:16;;;;;;;29.87;23.03;;;3.50;99.90;;;;;;5001843;28;20264;-87
2022/01/13 10:08:46;;;;;;;28.17;22.80;;;3.80;99.90;;;;;;5010624;28;20466;-86
2022/01/13 10:11:31;;;;;;;28.03;23.43;;;4.40;99.90;;;;;;5014715;28;20448;-87
2022/01/13 10:14:13;;;;;;;23.47;19.10;;;5.00;98.50;;;;;;4997840;28;20492;-87
2022/01/13 10:16:44;;;;;;;22.73;18.67;;;5.80;97.80;;;;;;4995428;28;20452;-90
2022/01/13 10:19:27;;;;;;;29.67;20.83;;;6.10;95.60;;;;;;5003434;28;20477;-90
2022/01/13 10:22:06;;;;;;;23.77;17.83;;;6.10;94.70;;;;;;5008129;28;20517;-90
2022/01/13 10:24:35;;;;;;;25.20;20.40;;;5.90;94.50;;;;;;5006922;28;20494;-90
2022/01/13 10:27:10;;;;;;;30.40;18.90;;;6.30;94.60;;;;;;5004713;28;20451;-90
2022/01/13 10:29:43;;;;;;;24.43;18.70;;;6.50;94.00;;;;;;5004260;28;20469;-90
2022/01/13 10:32:26;;;;;;;22.27;17.40;;;6.60;93.90;;;;;;5004452;28;20450;-90
2022/01/13 10:35:25;;;;;;;25.20;21.17;;;6.70;94.40;;;;;;5010830;28;20443;-91
2022/01/13 10:37:58;;;;;;;23.43;20.30;;;7.30;93.80;;;;;;5001873;28;20506;-91
2022/01/13 10:40:30;;;;;;;27.73;19.07;;;8.60;91.90;;;;;;5007055;28;20490;-92
2022/01/13 10:43:11;;;;;;;20.53;18.33;;;9.90;86.50;;;;;;5004948;28;20482;-92
2022/01/13 10:45:49;;;;;;;28.20;18.83;;;9.90;85.30;;;;;;5004669;28;20446;-91
2022/01/13 10:48:22;;;;;;;22.90;20.67;;;10.60;81.70;;;;;;5004057;28;20481;-92
2022/01/13 10:50:53;;;;;;;22.87;19.10;;;11.00;79.70;;;;;;5003350;28;20461;-91
2022/01/13 10:53:47;;;;;;;23.23;20.73;;;12.00;77.40;;;;;;5006820;28;20456;-91
2022/01/13 10:56:17;;;;;;;23.20;20.70;;;13.30;70.00;;;;;;5004368;28;20467;-91
2022/01/13 10:58:51;;;;;;;23.13;20.20;;;13.80;67.90;;;;;;5011740;28;20488;-91
2022/01/13 11:01:18;;;;;;;21.90;19.67;;;15.80;64.10;;;;;;5011102;28;20543;-92
2022/01/13 11:03:51;;;;;;;24.10;21.60;;;17.40;58.90;;;;;;5007303;28;20512;-92
2022/01/13 11:06:19;;;;;;;22.97;20.53;;;18.50;53.70;;;;;;5010990;28;20532;-91
2022/01/13 11:08:48;;;;;;;20.23;18.30;;;18.30;53.70;;;;;;5014644;28;20954;-92
2022/01/13 11:11:18;;;;;;;19.70;17.90;;;19.10;52.30;;;;;;5012633;28;20531;-91
2022/01/13 11:13:54;;;;;;;20.80;18.70;;;17.60;50.80;;;;;;5002868;28;20458;-92
2022/01/13 11:16:22;;;;;;;25.63;20.63;;;17.90;51.10;;;;;;5002448;28;20457;-91
2022/01/13 11:18:50;;;;;;;23.47;21.20;;;17.10;51.10;;;;;;5007817;28;20471;-92
2022/01/13 11:21:18;;;;;;;21.17;18.93;;;15.60;52.50;;;;;;5002353;28;20862;-92
2022/01/13 11:24:00;;;;;;;22.00;19.90;;;15.70;52.90;;;;;;4996243;28;20441;-93
2022/01/13 11:26:27;;;;;;;20.70;18.50;;;15.30;53.70;;;;;;4992657;28;20443;-91
2022/01/13 11:28:57;;;;;;;20.00;18.10;;;17.20;54.20;;;;;;4996779;28;20466;-92
2022/01/13 11:31:24;;;;;;;19.43;17.40;;;18.20;50.90;;;;;;4994423;28;20448;-93
2022/01/13 11:33:52;;;;;;;25.30;22.70;;;18.00;50.20;;;;;;4988419;28;20547;-93
2022/01/13 11:36:20;;;;;;;20.40;18.50;;;17.70;50.40;;;;;;4980748;28;20506;-89
2022/01/13 11:46:46;;;;;;;20.93;18.93;;;20.00;46.10;;;;;;2577943;22;20616;-90
2022/01/13 11:49:24;;;;;;;21.87;19.70;;;19.70;47.30;;;;;;5019242;28;20534;-91
2022/01/13 11:51:59;;;;;;;19.90;18.10;;;21.10;46.50;;;;;;5067292;23;20507;-92
2022/01/13 11:59:37;;;;;;;22.40;20.20;;;20.70;45.10;;;;;;5322653;22;20772;-92
2022/01/13 12:02:24;;;;;;;22.03;19.87;;;21.40;45.00;;;;;;5029218;28;20452;-91
2022/01/13 12:05:46;;;;;;;21.27;19.37;;;21.40;43.60;;;;;;5036992;28;20455;-93
2022/01/13 12:08:37;;;;;;;22.70;20.47;;;21.60;43.00;;;;;;5025311;28;20449;-92
2022/01/13 12:11:04;;;;;;;21.37;19.30;;;20.60;43.00;;;;;;5026555;28;20455;-93
2022/01/13 12:13:35;;;;;;;21.90;19.57;;;19.90;43.90;;;;;;5025241;28;20451;-93
2022/01/13 12:16:03;;;;;;;22.67;20.47;;;18.90;45.20;;;;;;5029754;28;20506;-93
2022/01/13 12:19:05;;;;;;;23.83;21.30;;;18.10;45.60;;;;;;5039239;28;20430;-92
2022/01/13 12:21:36;;;;;;;21.93;19.83;;;18.50;47.30;;;;;;5038549;28;20473;-94
2022/01/13 12:24:06;;;;;;;24.33;21.93;;;19.10;46.70;;;;;;5038844;28;20466;-92
2022/01/13 12:26:49;;;;;;;23.77;21.40;;;19.50;46.20;;;;;;5030980;28;20450;-89
2022/01/13 12:29:39;;;;;;;20.60;18.60;;;20.40;45.00;;;;;;5023094;28;20557;-90
2022/01/13 12:32:51;;;;;;;22.33;20.13;;;19.70;44.30;;;;;;5024098;28;20494;-91
2022/01/13 12:35:48;;;;;;;22.07;19.87;;;19.10;46.10;;;;;;5016278;28;20539;-90
2022/01/13 12:38:20;;;;;;;23.50;21.10;;;20.20;45.30;;;;;;5022997;28;20455;-90
2022/01/13 12:41:15;;;;;;;21.13;18.80;;;19.30;44.40;;;;;;5020511;28;20597;-90
2022/01/13 12:44:19;;;;;;;23.17;20.90;;;16.10;47.30;;;;;;5014536;28;20449;-89
2022/01/13 12:46:47;;;;;;;21.37;19.17;;;14.70;50.40;;;;;;5026848;28;20451;-89
2022/01/13 12:49:14;;;;;;;24.13;20.07;;;13.30;54.10;;;;;;5020450;28;20453;-89
2022/01/13 12:52:05;;;;;;;22.10;19.07;;;12.60;55.40;;;;;;5019453;28;20447;-89
2022/01/13 12:57:25;;;;;;;19.53;17.47;;;12.60;56.40;;;;;;5023941;28;20446;-89
2022/01/13 13:00:32;;;;;;;22.63;20.03;;;12.40;56.80;;;;;;5031283;28;20478;-89
2022/01/13 13:03:18;;;;;;;22.23;19.93;;;12.20;57.30;;;;;;5013095;28;20486;-88
2022/01/13 13:05:56;;;;;;;21.33;19.13;;;12.20;58.20;;;;;;5026211;28;20442;-89
2022/01/13 13:08:33;;;;;;;21.10;19.10;;;12.50;57.90;;;;;;5025625;28;20590;-90
2022/01/13 13:11:16;;;;;;;24.20;20.47;;;12.40;57.30;;;;;;5021849;28;20458;-89
2022/01/13 13:13:47;;;;;;;20.33;17.97;;;12.70;57.30;;;;;;5014207;28;20465;-89
2022/01/13 13:16:15;;;;;;;25.80;20.17;;;13.10;56.80;;;;;;5023009;28;20823;-91
2022/01/13 13:18:45;;;;;;;21.00;18.83;;;12.90;56.20;;;;;;5020699;28;20430;-90
2022/01/13 13:21:21;;;;;;;23.37;20.53;;;11.90;57.40;;;;;;5020631;28;20508;-89